createdAt,value
2023-05-08T00:00:15.734Z,96850.63
2023-05-08T00:02:43.820Z,96846.13
2023-05-08T00:05:11.884Z,96843.72
2023-05-08T00:07:39.968Z,96842.66
2023-05-08T00:10:10.580Z,96849.81
2023-05-08T00:12:40.133Z,96842.66
2023-05-08T00:15:12.293Z,96839.44
2023-05-08T00:17:40.410Z,96844.75
2023-05-08T00:20:09.865Z,96851.69
2023-05-08T00:22:40.329Z,96850.06
2023-05-08T00:25:09.280Z,96849.25
2023-05-08T00:27:38.654Z,96847.66
2023-05-08T00:30:10.006Z,96857.78
2023-05-08T00:32:38.367Z,96855.03
2023-05-08T00:35:09.349Z,96861.19
2023-05-08T00:37:40.679Z,96855.63
2023-05-08T00:40:11.189Z,96852.72
2023-05-08T00:42:40.857Z,96851.91
2023-05-08T00:45:10.982Z,96847.97
2023-05-08T00:47:39.786Z,96847.97
2023-05-08T00:50:09.931Z,96856.53
2023-05-08T00:52:39.077Z,96857.53
2023-05-08T00:55:08.864Z,96862.63
2023-05-08T00:57:37.889Z,96856.75
2023-05-08T01:00:10.690Z,96861.56
2023-05-08T01:02:39.800Z,96862.06
2023-05-08T01:05:08.653Z,96863.91
2023-05-08T01:07:36.829Z,96870.28
2023-05-08T01:10:05.389Z,96863.84
2023-05-08T01:12:50.574Z,96861.41
2023-05-08T01:15:30.311Z,96851.59
2023-05-08T01:18:09.990Z,96861.66
2023-05-08T01:20:47.667Z,96865.91
2023-05-08T01:24:23.369Z,96857.84
2023-05-08T01:27:53.745Z,96867.34
2023-05-08T01:30:56.477Z,96858.56
2023-05-08T01:33:34.654Z,96856.25
2023-05-08T01:36:32.697Z,96861.88
2023-05-08T01:39:13.993Z,96859.22
2023-05-08T01:41:46.657Z,96866.13
2023-05-08T01:44:19.878Z,96858.16
2023-05-08T01:46:51.639Z,96872.75
2023-05-08T01:49:27.458Z,96864.78
2023-05-08T01:52:00.049Z,96869.06
2023-05-08T01:54:34.835Z,96863.47
2023-05-08T01:57:04.534Z,96871.47
2023-05-08T01:59:35.053Z,96875.41
2023-05-08T02:02:05.156Z,96872.97
2023-05-08T02:04:35.596Z,96873.78
2023-05-08T02:07:11.208Z,96874.25
2023-05-08T02:09:41.988Z,96874.72
2023-05-08T02:12:12.006Z,96873.72
2023-05-08T02:14:43.474Z,96869.19
2023-05-08T02:17:12.513Z,96874.25
2023-05-08T02:19:44.148Z,96867.13
2023-05-08T02:22:13.272Z,96870.00
2023-05-08T02:24:43.091Z,96876.13
2023-05-08T02:27:12.168Z,96881.22
2023-05-08T02:29:40.749Z,96875.09
2023-05-08T02:32:10.462Z,96878.56
2023-05-08T02:34:51.146Z,96882.00
2023-05-08T02:37:32.103Z,96883.88
2023-05-08T02:40:00.741Z,96879.56
2023-05-08T02:42:28.841Z,96872.44
2023-05-08T02:44:56.863Z,96880.88
2023-05-08T02:47:30.740Z,96882.00
2023-05-08T02:50:10.613Z,96877.38
2023-05-08T02:52:49.063Z,96872.34
2023-05-08T02:55:30.432Z,96880.31
2023-05-08T02:58:12.493Z,96877.88
2023-05-08T03:00:48.368Z,96883.19
2023-05-08T03:03:23.869Z,96875.22
2023-05-08T03:05:58.608Z,96880.53
2023-05-08T03:08:31.753Z,96880.78
2023-05-08T03:11:06.594Z,96879.97
2023-05-08T03:13:37.153Z,96881.81
2023-05-08T03:16:08.181Z,96877.31
2023-05-08T03:18:43.409Z,96874.88
2023-05-08T03:21:17.642Z,96871.44
2023-05-08T03:23:47.941Z,96878.91
2023-05-08T03:26:20.121Z,96875.22
2023-05-08T03:28:50.763Z,96870.16
2023-05-08T03:31:23.126Z,96877.88
2023-05-08T03:33:56.294Z,96872.22
2023-05-08T03:36:28.791Z,96872.47
2023-05-08T03:38:57.260Z,96874.88
2023-05-08T03:41:27.174Z,96879.50
2023-05-08T03:43:56.029Z,96880.03
2023-05-08T03:46:27.507Z,96877.16
2023-05-08T03:49:00.108Z,96877.38
2023-05-08T03:51:34.303Z,96879.25
2023-05-08T03:54:02.374Z,96877.16
2023-05-08T03:56:30.393Z,96873.13
2023-05-08T03:59:15.113Z,96879.50
2023-05-08T04:01:55.971Z,96881.31
2023-05-08T04:04:34.502Z,96882.16
2023-05-08T04:07:10.033Z,96885.13
2023-05-08T04:09:59.205Z,96886.19
2023-05-08T04:12:37.518Z,96880.03
2023-05-08T04:15:11.021Z,96894.59
2023-05-08T04:17:46.535Z,96894.59
2023-05-08T04:20:20.659Z,96896.19
2023-05-08T04:22:53.746Z,96897.78
2023-05-08T04:25:23.868Z,96897.78
2023-05-08T04:27:54.950Z,96900.44
2023-05-08T04:30:24.140Z,96901.03
2023-05-08T04:32:53.010Z,96901.81
2023-05-08T04:35:21.506Z,96904.00
2023-05-08T04:37:51.625Z,96901.13
2023-05-08T04:40:19.728Z,96910.69
2023-05-08T04:42:48.031Z,96912.81
2023-05-08T04:45:19.304Z,96909.91
2023-05-08T04:47:47.671Z,96915.22
2023-05-08T04:50:15.938Z,96912.56
2023-05-08T04:52:44.044Z,96915.00
2023-05-08T04:55:13.960Z,96914.72
2023-05-08T04:57:42.344Z,96919.00
2023-05-08T05:00:12.434Z,96919.56
2023-05-08T05:02:42.540Z,96917.66
2023-05-08T05:05:11.360Z,96928.75
2023-05-08T05:07:39.629Z,96921.81
2023-05-08T05:10:09.074Z,96927.59
2023-05-08T05:12:39.318Z,96923.66
2023-05-08T05:15:09.004Z,96934.06
2023-05-08T05:17:39.041Z,96930.56
2023-05-08T05:20:09.635Z,96931.63
2023-05-08T05:22:38.324Z,96929.69
2023-05-08T05:25:07.914Z,96936.63
2023-05-08T05:27:40.572Z,96933.69
2023-05-08T05:30:35.741Z,96929.69
2023-05-08T05:33:27.912Z,96932.91
2023-05-08T05:35:55.994Z,96937.88
2023-05-08T05:38:25.847Z,96943.19
2023-05-08T05:40:54.588Z,96937.09
2023-05-08T05:43:23.987Z,96944.00
2023-05-08T05:45:52.626Z,96946.13
2023-05-08T05:48:21.160Z,96944.25
2023-05-08T05:50:49.258Z,96946.13
2023-05-08T05:53:17.253Z,96936.84
2023-05-08T05:55:45.578Z,96946.19
2023-05-08T05:58:13.591Z,96944.00
2023-05-08T06:00:43.099Z,96946.44
2023-05-08T06:03:11.562Z,96949.91
2023-05-08T06:05:40.371Z,96951.97
2023-05-08T06:08:08.505Z,96949.31
2023-05-08T06:10:36.885Z,96953.34
2023-05-08T06:13:04.960Z,96961.31
2023-05-08T06:15:34.857Z,96950.94
2023-05-08T06:18:05.725Z,96957.88
2023-05-08T06:20:34.471Z,96961.56
2023-05-08T06:23:03.006Z,96961.56
2023-05-08T06:25:31.905Z,96968.00
2023-05-08T06:28:00.047Z,96959.56
2023-05-08T06:30:28.423Z,96968.59
2023-05-08T06:32:56.771Z,96964.34
2023-05-08T06:35:26.268Z,96964.66
2023-05-08T06:37:54.330Z,96968.59
2023-05-08T06:40:23.546Z,96971.59
2023-05-08T06:42:51.542Z,96972.16
2023-05-08T06:45:19.679Z,96967.88
2023-05-08T06:47:47.738Z,96968.69
2023-05-08T06:50:15.915Z,96962.31
2023-05-08T06:52:45.216Z,96969.00
2023-05-08T06:55:13.488Z,96965.56
2023-05-08T06:57:41.579Z,96959.78
2023-05-08T07:00:11.585Z,96968.31
2023-05-08T07:02:39.653Z,96959.78
2023-05-08T07:05:09.054Z,96967.25
2023-05-08T07:07:37.088Z,96968.91
2023-05-08T07:10:08.066Z,96967.94
2023-05-08T07:12:36.161Z,96967.16
2023-05-08T07:15:13.773Z,96973.25
2023-05-08T07:17:46.484Z,96972.47
2023-05-08T07:20:14.547Z,96970.34
2023-05-08T07:22:42.518Z,96965.63
2023-05-08T07:25:12.725Z,96975.19
2023-05-08T07:27:41.063Z,96971.25
2023-05-08T07:30:14.379Z,96982.44
2023-05-08T07:32:42.599Z,96972.88
2023-05-08T07:35:12.799Z,96979.47
2023-05-08T07:37:41.309Z,96979.47
2023-05-08T07:40:11.703Z,96976.34
2023-05-08T07:42:41.516Z,96978.25
2023-05-08T07:45:35.456Z,96978.75
2023-05-08T07:48:05.277Z,96990.19
2023-05-08T07:50:33.363Z,96986.16
2023-05-08T07:53:01.469Z,96990.91
2023-05-08T07:55:30.970Z,96992.06
2023-05-08T07:57:59.219Z,96983.03
2023-05-08T08:00:29.521Z,96985.69
2023-05-08T08:02:57.750Z,96985.09
2023-05-08T08:05:26.203Z,96988.91
2023-05-08T08:07:54.305Z,96984.63
2023-05-08T08:10:22.339Z,96987.28
2023-05-08T08:12:51.690Z,96991.31
2023-05-08T08:15:19.914Z,96987.66
2023-05-08T08:17:48.951Z,96990.03
2023-05-08T08:20:17.292Z,96987.50
2023-05-08T08:22:45.314Z,96992.00
2023-05-08T08:25:13.536Z,96981.13
2023-05-08T08:27:41.777Z,96986.75
2023-05-08T08:30:17.639Z,96997.75
2023-05-08T08:32:46.876Z,96995.41
2023-05-08T08:35:15.834Z,96993.78
2023-05-08T08:37:44.806Z,96995.41
2023-05-08T08:40:13.390Z,96990.91
2023-05-08T08:42:41.807Z,96993.47
2023-05-08T08:45:12.491Z,96999.47
2023-05-08T08:47:43.726Z,96993.66
2023-05-08T08:50:15.047Z,96988.34
2023-05-08T08:52:54.290Z,96995.50
2023-05-08T08:55:25.759Z,96992.50
2023-05-08T08:58:04.134Z,96993.13
2023-05-08T09:00:34.605Z,96999.47
2023-05-08T09:03:03.078Z,96998.66
2023-05-08T09:05:31.544Z,97006.72
2023-05-08T09:08:00.359Z,97002.22
2023-05-08T09:10:28.402Z,97003.38
2023-05-08T09:12:56.599Z,97004.97
2023-05-08T09:15:24.857Z,97004.63
2023-05-08T09:17:54.298Z,97004.38
2023-05-08T09:20:23.648Z,97001.09
2023-05-08T09:22:53.746Z,97009.38
2023-05-08T09:25:22.035Z,97013.66
2023-05-08T09:27:50.087Z,97010.75
2023-05-08T09:30:18.100Z,97012.06
2023-05-08T09:32:46.444Z,97009.63
2023-05-08T09:35:16.075Z,97010.44
2023-05-08T09:37:45.426Z,97014.13
2023-05-08T09:40:22.135Z,97021.09
2023-05-08T09:42:51.347Z,97014.94
2023-05-08T09:45:30.102Z,97022.69
2023-05-08T09:47:58.618Z,97026.41
2023-05-08T09:50:28.190Z,97019.78
2023-05-08T09:52:56.577Z,97013.66
2023-05-08T09:55:24.705Z,97013.88
2023-05-08T09:57:58.040Z,97013.66
2023-05-08T10:01:41.345Z,97016.44
2023-05-08T10:04:09.519Z,97017.50
2023-05-08T10:06:39.021Z,97021.56
2023-05-08T10:09:12.254Z,97012.88
2023-05-08T10:11:41.327Z,97019.56
2023-05-08T10:14:10.882Z,97023.50
2023-05-08T10:16:44.659Z,97017.69
2023-05-08T10:19:18.776Z,97023.00
2023-05-08T10:21:50.853Z,97019.31
2023-05-08T10:24:21.269Z,97026.25
2023-05-08T10:27:06.974Z,97017.69
2023-05-08T10:29:48.230Z,97021.97
2023-05-08T10:32:20.370Z,97020.94
2023-05-08T10:34:54.163Z,97022.84
2023-05-08T10:37:23.589Z,97016.81
2023-05-08T10:39:53.090Z,97022.22
2023-05-08T10:42:21.343Z,97023.34
2023-05-08T10:44:49.624Z,97019.50
2023-05-08T10:47:26.203Z,97010.78
2023-05-08T10:50:05.697Z,97012.50
2023-05-08T10:52:43.485Z,97008.59
2023-05-08T10:55:23.934Z,97009.00
2023-05-08T10:58:07.441Z,97007.25
2023-05-08T11:01:17.814Z,97001.84
2023-05-08T11:03:50.477Z,97006.41
2023-05-08T11:06:46.936Z,97007.88
2023-05-08T11:09:31.293Z,97006.81
2023-05-08T11:12:17.277Z,97000.47
2023-05-08T11:14:54.364Z,97000.78
2023-05-08T11:17:25.409Z,96995.75
2023-05-08T11:19:59.130Z,96998.75
2023-05-08T11:22:32.683Z,96991.03
2023-05-08T11:25:06.064Z,96993.19
2023-05-08T11:28:09.111Z,96993.19
2023-05-08T11:30:39.699Z,96989.72
2023-05-08T11:33:31.471Z,96987.38
2023-05-08T11:36:01.785Z,96987.38
2023-05-08T11:38:34.142Z,96986.88
2023-05-08T11:41:11.855Z,96981.88
2023-05-08T11:44:23.680Z,96980.50
2023-05-08T11:46:53.826Z,96983.25
2023-05-08T11:49:28.096Z,96986.22
2023-05-08T11:52:00.429Z,96982.19
2023-05-08T11:54:31.909Z,96974.75
2023-05-08T11:57:01.735Z,96976.97
2023-05-08T11:59:30.051Z,96975.13
2023-05-08T12:02:07.552Z,96978.56
2023-05-08T12:04:46.527Z,96981.22
2023-05-08T12:07:15.926Z,96984.16
2023-05-08T12:09:46.887Z,96983.34
2023-05-08T12:12:16.216Z,96980.69
2023-05-08T12:14:44.428Z,96984.28
2023-05-08T12:17:12.537Z,96988.31
2023-05-08T12:19:42.146Z,96990.97
2023-05-08T12:22:34.974Z,96988.47
2023-05-08T12:25:05.347Z,96990.13
2023-05-08T12:27:34.724Z,96988.47
2023-05-08T12:30:08.651Z,96992.22
2023-05-08T12:32:39.123Z,96980.44
2023-05-08T12:35:08.449Z,96993.19
2023-05-08T12:37:36.847Z,96985.69
2023-05-08T12:40:05.891Z,96988.34
2023-05-08T12:42:45.560Z,96982.22
2023-05-08T12:45:20.330Z,96986.19
2023-05-08T12:47:49.861Z,96981.31
2023-05-08T12:50:21.073Z,96989.91
2023-05-08T12:52:51.776Z,96995.47
2023-05-08T12:55:25.345Z,96999.50
2023-05-08T12:58:03.994Z,96992.22
2023-05-08T13:00:43.518Z,96997.81
2023-05-08T13:03:13.944Z,96992.72
2023-05-08T13:05:45.062Z,96989.00
2023-05-08T13:08:13.375Z,96989.25
2023-05-08T13:10:46.877Z,96987.94
2023-05-08T13:13:18.032Z,96981.56
2023-05-08T13:15:46.659Z,96985.06
2023-05-08T13:18:15.228Z,96974.41
2023-05-08T13:20:44.097Z,96979.97
2023-05-08T13:23:12.344Z,96981.56
2023-05-08T13:25:41.707Z,96975.47
2023-05-08T13:28:13.389Z,96974.41
2023-05-08T13:30:43.970Z,96980.31
2023-05-08T13:33:12.214Z,96975.75
2023-05-08T13:35:40.802Z,96977.22
2023-05-08T13:38:13.323Z,96962.59
2023-05-08T13:40:41.385Z,96962.03
2023-05-08T13:43:09.421Z,96967.69
2023-05-08T13:45:37.817Z,96965.03
2023-05-08T13:48:08.063Z,96954.94
2023-05-08T13:50:36.161Z,96964.53
2023-05-08T13:53:04.701Z,96960.81
2023-05-08T13:55:32.983Z,96958.16
2023-05-08T13:58:01.020Z,96951.53
2023-05-08T14:00:29.410Z,96962.44
2023-05-08T14:02:57.491Z,96957.41
2023-05-08T14:05:26.889Z,96956.09
2023-05-08T14:07:54.860Z,96957.16
2023-05-08T14:10:23.070Z,96956.88
2023-05-08T14:12:51.100Z,96952.31
2023-05-08T14:15:19.403Z,96947.56
2023-05-08T14:17:48.252Z,96949.41
2023-05-08T14:20:16.394Z,96952.31
2023-05-08T14:22:47.231Z,96951.59
2023-05-08T14:25:15.521Z,96951.53
2023-05-08T14:27:43.845Z,96952.84
2023-05-08T14:30:13.453Z,96949.59
2023-05-08T14:32:41.621Z,96949.53
2023-05-08T14:35:10.930Z,96947.41
2023-05-08T14:37:38.966Z,96945.28
2023-05-08T14:40:10.530Z,96953.50
2023-05-08T14:42:43.562Z,96948.66
2023-05-08T14:45:36.509Z,96950.25
2023-05-08T14:48:04.830Z,96952.38
2023-05-08T14:50:32.914Z,96946.53
2023-05-08T14:53:01.159Z,96947.06
2023-05-08T14:55:30.841Z,96951.31
2023-05-08T14:57:59.231Z,96944.69
2023-05-08T15:00:27.281Z,96952.69
2023-05-08T15:02:55.514Z,96942.28
2023-05-08T15:05:23.910Z,96943.34
2023-05-08T15:07:52.206Z,96942.50
2023-05-08T15:10:20.478Z,96942.22
2023-05-08T15:12:50.228Z,96941.16
2023-05-08T15:15:18.515Z,96942.94
2023-05-08T15:17:46.506Z,96941.72
2023-05-08T15:20:14.645Z,96941.16
2023-05-08T15:22:42.614Z,96939.78
2023-05-08T15:25:12.063Z,96940.84
2023-05-08T15:27:41.621Z,96941.63
2023-05-08T15:30:12.644Z,96939.78
2023-05-08T15:32:43.283Z,96944.56
2023-05-08T15:35:35.560Z,96948.59
2023-05-08T15:38:07.696Z,96954.16
2023-05-08T15:40:35.756Z,96951.75
2023-05-08T15:43:05.981Z,96950.44
2023-05-08T15:45:35.404Z,96953.09
2023-05-08T15:48:03.911Z,96949.88
2023-05-08T15:50:32.077Z,96954.63
2023-05-08T15:53:00.092Z,96967.13
2023-05-08T15:55:28.390Z,96965.78
2023-05-08T15:57:56.368Z,96962.63
2023-05-08T16:00:27.363Z,96964.47
2023-05-08T16:02:59.645Z,96952.22
2023-05-08T16:05:27.683Z,96962.88
2023-05-08T16:07:55.716Z,96949.56
2023-05-08T16:10:23.822Z,96954.34
2023-05-08T16:12:52.848Z,96952.69
2023-05-08T16:15:21.049Z,96951.91
2023-05-08T16:17:49.122Z,96961.75
2023-05-08T16:20:18.683Z,96960.38
2023-05-08T16:22:46.641Z,96959.31
2023-05-08T16:25:14.919Z,96958.78
2023-05-08T16:27:43.028Z,96957.94
2023-05-08T16:30:12.498Z,96960.63
2023-05-08T16:32:40.751Z,96963.03
2023-05-08T16:35:11.014Z,96970.44
2023-05-08T16:37:40.861Z,96961.97
2023-05-08T16:40:10.539Z,96963.53
2023-05-08T16:42:39.879Z,96964.34
2023-05-08T16:45:09.615Z,96957.41
2023-05-08T16:47:37.746Z,96958.38
2023-05-08T16:50:06.468Z,96960.06
2023-05-08T16:52:34.574Z,96953.34
2023-05-08T16:55:04.199Z,96961.91
2023-05-08T16:57:32.245Z,96962.72
2023-05-08T17:00:00.332Z,96962.47
2023-05-08T17:02:31.707Z,96961.34
2023-05-08T17:04:59.731Z,96964.00
2023-05-08T17:07:27.935Z,96963.75
2023-05-08T17:09:57.506Z,96962.72
2023-05-08T17:12:26.881Z,96950.44
2023-05-08T17:14:54.881Z,96964.56
2023-05-08T17:17:22.845Z,96957.13
2023-05-08T17:19:50.867Z,96961.09
2023-05-08T17:22:20.494Z,96960.31
2023-05-08T17:24:48.669Z,96965.88
2023-05-08T17:27:16.674Z,96965.88
2023-05-08T17:29:45.989Z,96967.78
2023-05-08T17:32:14.188Z,96972.56
2023-05-08T17:34:42.249Z,96979.19
2023-05-08T17:37:10.250Z,96970.63
2023-05-08T17:39:38.338Z,96975.16
2023-05-08T17:42:06.737Z,96981.59
2023-05-08T17:44:35.767Z,96977.88
2023-05-08T17:47:05.431Z,96982.38
2023-05-08T17:49:33.948Z,96983.69
2023-05-08T17:52:06.466Z,96990.38
2023-05-08T17:54:34.485Z,96984.81
2023-05-08T17:57:02.536Z,96991.50
2023-05-08T17:59:32.330Z,96990.94
2023-05-08T18:02:03.166Z,96979.72
2023-05-08T18:04:33.233Z,96983.75
2023-05-08T18:07:01.975Z,96980.53
2023-05-08T18:09:29.975Z,96982.38
2023-05-08T18:12:02.181Z,96986.59
2023-05-08T18:14:31.671Z,96978.38
2023-05-08T18:17:00.802Z,96982.91
2023-05-08T18:19:28.929Z,96983.69
2023-05-08T18:21:58.288Z,96980.78
2023-05-08T18:24:27.054Z,96981.03
2023-05-08T18:26:56.700Z,96986.81
2023-05-08T18:29:26.706Z,96991.03
2023-05-08T18:31:54.735Z,96994.50
2023-05-08T18:34:23.209Z,96985.69
2023-05-08T18:36:51.210Z,96992.31
2023-05-08T18:39:20.790Z,96985.16
2023-05-08T18:41:49.016Z,96982.97
2023-05-08T18:44:45.128Z,96989.03
2023-05-08T18:47:18.958Z,96989.25
2023-05-08T18:49:46.962Z,96991.34
2023-05-08T18:52:15.382Z,96986.50
2023-05-08T18:54:44.740Z,96989.09
2023-05-08T18:57:12.894Z,96982.16
2023-05-08T18:59:41.156Z,96978.69
2023-05-08T19:02:09.302Z,96986.75
2023-05-08T19:04:37.366Z,96977.97
2023-05-08T19:07:05.402Z,96976.59
2023-05-08T19:09:35.234Z,96978.13
2023-05-08T19:12:05.299Z,96978.13
2023-05-08T19:14:33.306Z,96978.38
2023-05-08T19:17:01.325Z,96982.56
2023-05-08T19:19:29.500Z,96980.94
2023-05-08T19:21:57.501Z,96981.41
2023-05-08T19:24:31.873Z,96976.34
2023-05-08T19:26:59.926Z,96977.84
2023-05-08T19:29:29.364Z,96975.41
2023-05-08T19:31:57.524Z,96975.09
2023-05-08T19:34:25.600Z,96972.31
2023-05-08T19:36:53.624Z,96976.28
2023-05-08T19:39:21.649Z,96975.72
2023-05-08T19:41:50.690Z,96974.91
2023-05-08T19:44:18.787Z,96973.53
2023-05-08T19:46:48.362Z,96970.56
2023-05-08T19:49:17.252Z,96982.44
2023-05-08T19:51:45.295Z,96983.19
2023-05-08T19:54:13.326Z,96981.56
2023-05-08T19:56:41.300Z,96989.19
2023-05-08T19:59:13.465Z,96990.72
2023-05-08T20:01:41.484Z,96983.44
2023-05-08T20:04:11.136Z,96989.66
2023-05-08T20:06:39.245Z,96989.56
2023-05-08T20:09:07.262Z,96998.50
2023-05-08T20:11:35.749Z,96994.94
2023-05-08T20:14:03.785Z,96992.53
2023-05-08T20:16:32.004Z,96995.88
2023-05-08T20:19:02.067Z,96986.19
2023-05-08T20:21:33.883Z,96996.81
2023-05-08T20:24:02.099Z,96986.06
2023-05-08T20:26:30.678Z,96987.94
2023-05-08T20:28:59.044Z,96985.28
2023-05-08T20:31:27.776Z,96985.84
2023-05-08T20:33:55.897Z,96981.81
2023-05-08T20:36:23.921Z,96981.13
2023-05-08T20:38:53.415Z,96977.09
2023-05-08T20:41:22.132Z,96987.03
2023-05-08T20:43:50.188Z,96980.13
2023-05-08T20:46:18.207Z,96991.34
2023-05-08T20:48:46.462Z,96982.22
2023-05-08T20:51:15.945Z,96974.91
2023-05-08T20:53:44.353Z,96978.94
2023-05-08T20:56:17.253Z,96980.22
2023-05-08T20:58:46.989Z,96980.13
2023-05-08T21:01:14.975Z,96979.06
2023-05-08T21:03:42.987Z,96982.78
2023-05-08T21:06:13.450Z,96979.22
2023-05-08T21:08:41.503Z,96972.75
2023-05-08T21:11:16.333Z,96972.38
2023-05-08T21:13:45.796Z,96975.28
2023-05-08T21:16:14.501Z,96978.41
2023-05-08T21:18:42.522Z,96971.22
2023-05-08T21:21:20.397Z,96968.47
2023-05-08T21:23:48.391Z,96970.34
2023-05-08T21:26:16.442Z,96966.28
2023-05-08T21:28:45.787Z,96964.13
2023-05-08T21:31:13.792Z,96967.44
2023-05-08T21:33:42.721Z,96971.72
2023-05-08T21:36:14.548Z,96969.28
2023-05-08T21:38:42.886Z,96976.47
2023-05-08T21:41:14.496Z,96966.31
2023-05-08T21:43:42.453Z,96969.41
2023-05-08T21:46:11.976Z,96971.59
2023-05-08T21:48:39.960Z,96961.13
2023-05-08T21:51:08.045Z,96960.75
2023-05-08T21:53:36.119Z,96957.53
2023-05-08T21:56:04.469Z,96964.22
2023-05-08T21:58:32.451Z,96967.13
2023-05-08T22:01:00.428Z,96972.06
2023-05-08T22:03:30.617Z,96971.50
2023-05-08T22:05:58.803Z,96962.81
2023-05-08T22:08:26.864Z,96966.84
2023-05-08T22:10:54.892Z,96955.81
2023-05-08T22:13:22.938Z,96954.06
2023-05-08T22:15:51.263Z,96962.16
2023-05-08T22:18:19.295Z,96961.34
2023-05-08T22:20:48.665Z,96951.53
2023-05-08T22:23:16.668Z,96950.47
2023-05-08T22:25:44.709Z,96955.34
2023-05-08T22:28:12.906Z,96954.78
2023-05-08T22:30:45.107Z,96960.88
2023-05-08T22:33:13.094Z,96958.94
2023-05-08T22:35:41.230Z,96947.84
2023-05-08T22:38:10.578Z,96947.84
2023-05-08T22:40:38.785Z,96940.34
2023-05-08T22:43:06.864Z,96932.63
2023-05-08T22:45:35.170Z,96931.56
2023-05-08T22:48:04.120Z,96924.66
2023-05-08T22:50:32.307Z,96931.69
2023-05-08T22:53:01.134Z,96921.91
2023-05-08T22:55:30.465Z,96920.03
2023-05-08T22:57:58.450Z,96905.41
2023-05-08T23:00:26.460Z,96900.00
2023-05-08T23:02:54.494Z,96903.19
2023-05-08T23:05:22.980Z,96894.31
2023-05-08T23:07:51.095Z,96894.91
2023-05-08T23:10:19.303Z,96895.72
2023-05-08T23:12:48.743Z,96893.88
2023-05-08T23:15:17.071Z,96888.81
2023-05-08T23:17:45.208Z,96887.53
2023-05-08T23:20:14.225Z,96880.25
2023-05-08T23:22:42.227Z,96885.09
2023-05-08T23:25:11.885Z,96877.38
2023-05-08T23:27:40.047Z,96886.94
2023-05-08T23:30:12.839Z,96885.34
2023-05-08T23:32:41.135Z,96887.41
2023-05-08T23:35:09.876Z,96875.31
2023-05-08T23:37:37.856Z,96878.41
2023-05-08T23:40:08.199Z,96879.47
2023-05-08T23:42:37.083Z,96878.88
2023-05-08T23:45:06.459Z,96874.38
2023-05-08T23:47:36.214Z,96874.72
2023-05-08T23:50:04.820Z,96870.81
2023-05-08T23:52:32.870Z,96870.81
2023-05-08T23:55:00.831Z,96867.00
2023-05-08T23:57:28.835Z,96862.28
2023-05-08T23:59:56.820Z,96863.06
